Date,TemperatureHighF,TemperatureAvgF,TemperatureLowF,DewpointHighF,DewpointAvgF,DewpointLowF,HumidityHigh,HumidityAvg,HumidityLow,PressureMaxIn,PressureMinIn,WindSpeedMaxMPH,WindSpeedAvgMPH,GustSpeedMaxMPH,PrecipitationSumIn
2014-1-1,50,34,23,29,24,20,91,68,37,30.35,30.09,4,0,10,0.00
2014-1-2,39,33,26,36,29,21,97,86,65,30.09,29.60,9,1,18,0.12
2014-1-3,30,21,15,21,7,3,79,56,39,30.42,29.72,12,3,22,0.00
2014-1-4,40,24,12,21,13,8,89,67,34,30.43,30.23,3,0,7,0.00
2014-1-5,36,33,28,36,30,20,98,88,66,30.24,29.67,2,0,4,0.05
2014-1-6,45,27,4,44,17,-11,99,66,44,30.13,29.56,14,4,25,0.05
2014-1-7,20,9,1,3,-6,-12,76,51,34,30.40,30.12,14,2,24,0.00
2014-1-8,45,23,7,19,10,2,86,60,30,30.52,30.38,6,0,9,0.00
2014-1-9,51,35,22,24,21,17,86,59,33,30.54,30.42,4,0,6,0.00
2014-1-10,39,36,32,38,33,21,98,90,54,30.46,30.09,3,0,4,0.53
2014-1-11,55,46,37,55,43,34,100,91,59,30.09,29.49,12,1,21,0.76
2014-1-12,55,43,32,35,31,28,89,62,37,30.11,29.66,12,2,26,0.00
2014-1-13,52,41,27,39,33,25,95,76,58,30.10,29.88,8,0,12,0.00
2014-1-14,53,43,32,44,38,29,99,83,49,29.93,29.74,13,1,25,0.11
2014-1-15,46,36,28,36,30,22,96,81,58,29.94,29.86,9,1,15,0.00
2014-1-16,42,31,24,22,18,15,78,59,37,30.01,29.85,5,0,12,0.00
2014-1-17,50,35,23,33,24,20,91,67,41,29.92,29.77,7,1,13,0.00
2014-1-18,32,26,20,24,14,8,76,61,47,29.99,29.84,12,2,21,0.00
2014-1-19,44,34,21,29,23,17,87,66,51,29.91,29.82,12,2,20,0.00
2014-1-20,59,45,33,30,26,21,76,47,28,29.83,29.72,10,2,23,0.00
2014-1-21,37,31,19,33,26,11,93,83,68,29.84,29.58,6,1,16,0.01
2014-1-22,24,18,12,11,4,-3,72,54,35,30.03,29.84,9,2,16,0.00
2014-1-23,25,19,9,13,6,-3,74,56,41,30.44,30.02,11,2,18,0.00
2014-1-24,27,13,5,6,-2,-6,70,52,28,30.51,30.05,9,2,20,0.00
2014-1-25,34,24,12,24,13,4,84,62,42,30.05,29.53,14,2,29,0.00
2014-1-26,50,34,19,23,10,2,55,38,22,29.86,29.71,14,2,31,0.00
2014-1-27,51,38,20,34,21,-2,66,50,33,30.14,29.72,11,3,20,0.00
2014-1-28,20,16,13,14,4,-5,90,61,37,30.32,30.14,7,1,13,0.00
2014-1-29,27,17,9,14,1,-9,91,52,31,30.30,30.13,7,1,9,0.00
2014-1-30,35,18,3,11,5,-1,88,60,31,30.37,30.16,5,0,7,0.00
2014-1-31,56,33,17,23,15,7,80,53,19,30.18,30.06,6,0,9,0.00
2014-2-1,61,40,25,26,23,21,88,56,24,30.24,30.03,4,0,9,0.00
2014-2-2,64,48,31,50,39,25,86,71,54,30.04,29.96,8,1,13,0.00
2014-2-3,51,44,36,47,41,33,98,89,76,30.26,29.86,5,0,10,1.74
2014-2-4,38,35,32,35,31,29,97,87,77,30.40,30.09,3,0,6,0.15
2014-2-5,57,38,31,48,32,23,98,83,56,30.11,29.71,12,2,18,0.04
2014-2-6,40,33,28,24,20,17,69,60,48,30.30,30.11,7,1,13,0.00
2014-2-7,42,32,26,24,22,20,86,67,47,30.33,30.23,7,1,10,0.00
2014-2-8,41,34,27,29,26,23,86,73,58,30.28,30.11,2,0,4,0.00
2014-2-9,46,40,33,36,32,28,83,73,64,30.14,29.94,10,1,15,0.00
2014-2-10,38,34,27,29,21,15,71,61,46,30.24,30.03,5,1,9,0.00
2014-2-11,40,28,20,19,16,15,85,64,39,30.37,30.23,4,0,6,0.00
2014-2-12,24,21,19,19,15,10,94,77,57,30.42,29.96,3,0,5,0.00
2014-2-13,38,29,20,34,25,19,98,88,58,29.96,29.44,12,1,26,0.12
2014-2-14,54,43,36,30,24,18,75,49,29,29.69,29.54,17,3,33,0.02
2014-2-15,38,33,24,34,25,14,96,73,51,30.03,29.55,11,2,20,0.08
2014-2-16,46,33,24,30,22,15,75,64,53,30.16,29.94,14,2,27,0.00
2014-2-17,39,31,20,25,21,17,90,67,49,30.35,30.14,6,0,8,0.00
2014-2-18,59,42,26,29,24,18,90,55,22,30.16,30.04,14,2,24,0.00
2014-2-19,66,47,34,47,36,27,97,69,43,30.09,29.82,14,2,24,0.09
2014-2-20,49,42,34,36,32,30,88,70,51,30.24,29.93,4,0,6,0.00
2014-2-21,60,49,35,56,35,14,98,62,18,30.02,29.74,13,2,21,0.63
2014-2-22,65,52,39,26,22,18,55,32,18,30.15,30.02,15,2,25,0.00
2014-2-23,68,52,35,35,29,23,72,45,22,30.06,29.85,10,1,20,0.00
2014-2-24,48,42,34,34,19,8,68,42,22,30.13,29.94,14,2,30,0.00
2014-2-25,44,36,28,21,17,10,62,47,33,30.09,29.94,11,1,17,0.00
2014-2-26,39,33,25,22,17,11,64,52,37,29.95,29.80,11,2,15,0.00
2014-2-27,43,31,20,13,7,-2,73,39,21,30.01,29.71,16,2,24,0.00
2014-2-28,39,27,17,15,12,7,77,53,36,30.28,30.01,5,0,9,0.00
2014-3-1,53,35,21,27,19,11,78,55,34,30.31,30.16,5,0,7,0.00
2014-3-2,69,50,31,54,41,25,96,73,45,30.19,29.86,10,1,14,0.19
2014-3-3,53,32,18,52,31,15,98,94,87,30.28,29.78,3,0,5,0.61
2014-3-4,34,23,13,21,14,10,94,72,42,30.34,30.17,4,0,5,0.00
2014-3-5,54,35,22,32,24,20,92,68,33,30.29,30.09,3,0,5,0.01
2014-3-6,40,32,28,25,19,15,87,59,44,30.42,30.22,4,0,6,0.00
2014-3-7,48,33,28,37,30,25,96,89,63,30.21,29.93,3,0,6,0.26
2014-3-8,67,42,29,42,32,28,98,75,24,30.03,29.92,11,1,16,0.07
2014-3-9,59,52,42,39,33,27,65,51,30,30.10,29.94,10,2,15,0.00
2014-3-10,71,57,43,41,30,22,56,37,23,30.01,29.76,11,2,21,0.00
2014-3-11,77,64,52,41,38,30,57,40,18,29.80,29.65,9,2,17,0.00
2014-3-12,71,52,35,57,41,22,84,66,51,29.68,29.17,14,3,26,0.04
2014-3-13,39,31,24,22,10,5,64,42,25,30.18,29.63,14,4,36,0.00
2014-3-14,62,44,25,24,18,10,69,40,21,30.22,29.98,11,1,20,0.00
2014-3-15,67,57,45,36,30,23,57,38,25,30.06,29.89,15,3,29,0.00
2014-3-16,47,39,32,34,30,27,96,73,47,30.08,29.92,4,0,9,0.14
2014-3-17,32,29,28,30,27,25,95,92,90,30.01,29.87,3,0,6,0.02
2014-3-18,39,33,28,35,31,27,96,93,84,30.18,29.98,3,0,4,0.08
2014-3-19,51,39,33,45,37,32,98,93,78,30.18,29.88,4,0,7,0.15
2014-3-20,59,51,37,44,30,18,98,47,22,30.04,29.88,13,3,22,0.00
2014-3-21,70,56,38,33,28,22,64,37,18,30.10,29.96,13,3,25,0.00
2014-3-22,69,60,49,42,35,27,65,40,31,29.99,29.91,13,2,24,0.00
2014-3-23,50,44,36,39,32,18,89,64,42,30.16,29.97,6,1,10,0.05
2014-3-24,50,36,26,19,13,10,55,40,21,30.26,30.04,11,1,15,0.00
2014-3-25,38,32,28,33,25,16,93,75,53,30.06,29.78,6,1,13,0.21
2014-3-26,42,31,25,26,13,8,90,48,27,30.29,29.96,13,3,20,0.01
2014-3-27,57,40,22,26,20,14,84,51,27,30.39,30.18,9,1,17,0.00
2014-3-28,62,55,48,52,46,25,87,72,38,30.18,30.05,11,1,20,0.00
2014-3-29,59,54,44,59,52,41,99,96,85,30.10,29.58,11,0,18,0.46
2014-3-30,49,42,36,41,31,26,90,65,46,29.98,29.67,14,5,22,0.03
2014-3-31,73,55,43,36,27,16,58,36,22,30.14,29.94,12,2,22,0.00
2014-4-1,81,59,37,44,37,32,84,49,21,30.18,29.95,10,1,14,0.00
2014-4-2,84,68,48,53,44,38,76,45,25,30.10,29.98,10,1,16,0.02
2014-4-3,73,62,49,54,49,42,83,64,48,30.11,29.89,5,0,9,0.00
2014-4-4,72,63,54,62,56,52,98,78,53,29.94,29.69,11,1,22,0.04
2014-4-5,63,54,42,53,35,30,70,51,34,30.14,29.80,10,3,17,0.00
2014-4-6,61,47,32,37,32,28,88,59,37,30.22,30.09,4,0,8,0.00
2014-4-7,53,45,43,46,43,36,99,93,53,30.11,29.61,6,0,8,1.29
2014-4-8,63,53,46,51,42,37,100,69,44,29.75,29.54,12,2,22,0.01
2014-4-9,63,50,42,39,37,35,82,62,37,30.10,29.72,11,1,20,0.00
2014-4-10,73,59,36,40,36,32,88,46,26,30.24,30.08,13,2,18,0.00
2014-4-11,79,67,50,46,41,37,68,41,27,30.14,29.99,12,2,21,0.00
2014-4-12,80,65,49,55,49,43,85,59,40,30.25,30.10,8,1,12,0.00
2014-4-13,83,68,52,58,52,47,86,59,39,30.17,30.03,9,1,16,0.00
2014-4-14,71,66,60,59,56,54,95,70,62,30.03,29.79,8,1,16,0.02
2014-4-15,65,51,34,63,46,21,99,85,59,30.05,29.59,12,2,20,0.91
2014-4-16,55,40,28,28,22,18,67,52,32,30.45,30.05,7,1,14,0.00
2014-4-17,61,39,28,33,27,23,84,63,31,30.58,30.43,5,0,9,0.00
2014-4-18,55,46,38,43,38,31,86,75,62,30.47,30.26,3,0,4,0.00
2014-4-19,65,53,45,45,43,42,89,70,46,30.26,30.19,3,0,4,0.00
2014-4-20,71,55,41,44,37,30,92,57,25,30.35,30.23,6,1,12,0.00
2014-4-21,79,57,37,45,39,34,91,56,28,30.25,29.91,5,0,7,0.00
2014-4-22,75,64,50,55,50,42,79,60,45,29.91,29.67,10,2,16,0.00
2014-4-23,68,58,49,50,34,30,57,41,27,30.03,29.71,13,2,23,0.00
2014-4-24,74,56,39,42,35,28,81,49,24,30.15,29.96,8,0,10,0.00
2014-4-25,69,56,45,62,49,40,97,78,56,29.98,29.69,13,1,29,0.16
2014-4-26,82,65,45,49,42,36,84,46,22,29.97,29.86,14,2,25,0.00
2014-4-27,87,67,48,53,47,42,83,52,23,30.05,29.88,9,1,17,0.00
2014-4-28,65,55,49,51,47,42,97,77,55,30.05,29.95,2,0,4,0.33
2014-4-29,50,49,47,50,48,47,99,98,97,30.09,29.96,5,0,6,1.17
2014-4-30,68,57,50,64,56,50,100,97,85,30.08,29.85,2,0,5,0.14
2014-5-1,77,65,55,61,50,33,99,64,27,29.90,29.77,12,2,20,0.00
2014-5-2,72,61,50,45,39,36,71,46,29,29.93,29.82,8,2,14,0.00
2014-5-3,74,61,48,47,43,40,86,55,31,29.92,29.82,10,1,15,0.00
2014-5-4,82,68,50,50,45,38,78,44,30,29.99,29.82,15,2,25,0.00
2014-5-5,71,60,52,58,52,46,93,77,58,30.10,29.89,5,0,8,0.06
2014-5-6,81,63,48,63,55,47,98,78,51,30.05,29.89,3,0,6,0.00
2014-5-7,83,69,59,63,58,53,93,73,46,30.18,30.05,4,0,8,0.00
2014-5-8,91,73,56,65,55,42,99,62,21,30.19,30.07,7,1,12,0.00
2014-5-9,87,70,57,65,59,51,94,71,38,30.15,30.00,10,1,20,0.13
2014-5-10,73,68,61,64,60,57,94,77,64,30.11,30.01,11,1,22,0.12
2014-5-11,86,70,55,63,59,54,99,73,41,30.18,30.06,4,0,7,0.00
2014-5-12,92,73,57,67,62,56,97,73,36,30.20,30.09,5,0,12,0.03
2014-5-13,93,74,60,71,64,59,100,75,41,30.18,30.07,4,0,8,0.13
2014-5-14,85,72,62,73,66,60,97,85,54,30.18,30.06,5,0,8,0.04
2014-5-15,69,65,56,67,63,53,98,93,84,30.10,29.86,8,1,14,1.71
2014-5-16,70,57,49,54,45,41,93,67,38,30.07,29.89,10,2,18,0.01
2014-5-17,64,54,45,43,39,36,79,58,38,30.20,30.04,7,1,12,0.00
2014-5-18,71,56,44,45,42,35,90,61,33,30.27,30.16,4,0,8,0.00
2014-5-19,74,58,43,52,46,41,91,68,42,30.34,30.21,6,0,8,0.00
2014-5-20,83,64,48,59,53,46,95,69,33,30.26,30.05,6,1,12,0.00
2014-5-21,85,76,63,64,60,55,84,60,47,30.07,29.94,9,2,22,0.00
2014-5-22,86,76,68,64,61,57,77,59,45,29.99,29.91,8,2,20,0.00
2014-5-23,83,70,59,61,54,43,92,61,26,30.08,29.96,9,1,15,0.00
2014-5-24,82,67,52,54,49,45,78,55,32,30.17,30.07,6,1,10,0.00
2014-5-25,84,67,52,61,55,49,91,68,45,30.23,30.12,5,0,9,0.00
2014-5-26,90,72,56,66,60,54,96,69,36,30.20,30.05,5,1,12,0.00
2014-5-27,85,76,68,70,64,59,87,67,54,30.10,29.97,7,1,12,0.02
2014-5-28,90,77,68,70,65,61,82,68,46,30.05,29.97,8,1,12,0.00
2014-5-29,72,67,62,66,64,61,98,88,78,30.15,30.03,2,0,6,0.09
2014-5-30,84,70,62,71,65,61,99,86,61,30.18,30.07,4,0,6,0.00
2014-5-31,84,71,61,63,60,56,97,71,42,30.26,30.14,4,0,6,0.00
2014-6-1,79,67,58,61,56,52,84,69,52,30.36,30.24,5,0,9,0.00
2014-6-2,86,69,53,65,58,51,94,69,46,30.30,30.10,5,0,6,0.00
2014-6-3,84,70,59,68,62,56,91,77,55,30.13,29.96,9,1,14,0.01
2014-6-4,87,75,67,73,68,63,97,78,55,29.98,29.76,5,0,8,0.26
2014-6-5,83,72,62,68,63,56,99,75,50,29.94,29.70,7,1,14,0.15
2014-6-6,86,69,55,63,57,52,91,68,40,30.01,29.92,5,0,7,0.00
2014-6-7,86,71,58,68,62,57,96,76,53,30.08,29.97,5,0,10,0.00
2014-6-8,80,71,62,71,66,60,97,84,70,30.01,29.86,10,1,21,0.00
2014-6-9,89,75,65,70,66,62,96,74,49,29.94,29.87,5,0,9,0.00
2014-6-10,92,77,67,72,67,63,91,72,43,30.01,29.91,7,1,14,0.15
2014-6-11,89,73,63,72,67,62,99,83,50,30.02,29.86,6,1,12,1.08
2014-6-12,85,71,64,74,68,64,99,89,61,29.97,29.82,5,0,6,0.75
2014-6-13,86,71,61,68,64,61,100,81,48,29.95,29.82,7,1,12,0.03
2014-6-14,86,72,61,62,56,49,83,60,31,30.13,29.95,6,1,12,0.00
2014-6-15,88,70,54,70,60,51,92,72,51,30.25,30.12,5,0,7,0.00
2014-6-16,91,76,64,75,68,62,95,79,52,30.22,30.12,4,0,7,0.10
2014-6-17,94,77,64,73,68,63,97,77,45,30.20,30.08,5,0,10,0.00
2014-6-18,96,80,65,73,68,63,95,70,41,30.14,30.06,6,1,12,0.00
2014-6-19,90,81,67,72,68,65,93,67,51,30.11,30.04,7,1,12,0.00
2014-6-20,92,76,67,74,68,65,98,78,45,30.10,29.94,7,0,13,0.66
2014-6-21,90,75,66,72,68,63,100,81,51,29.98,29.84,6,0,12,0.04
2014-6-22,84,73,65,72,67,63,97,84,63,30.06,29.89,5,0,7,0.20
2014-6-23,82,71,64,72,67,63,99,88,68,30.16,30.04,3,0,5,0.01
2014-6-24,87,74,65,73,68,64,96,82,59,30.17,30.03,5,0,8,0.00
2014-6-25,86,76,67,72,69,66,97,79,59,30.05,29.92,8,1,16,0.00
2014-6-26,91,76,68,72,68,66,96,77,47,30.06,29.97,5,0,8,0.14
2014-6-27,92,76,65,72,68,64,97,77,51,30.17,30.06,3,0,6,0.00
2014-6-28,85,75,69,72,69,65,95,82,62,30.29,30.17,4,0,7,0.00
2014-6-29,78,70,64,66,63,60,93,78,63,30.28,30.16,4,0,6,0.04
2014-6-30,88,74,62,74,68,61,97,82,58,30.17,29.98,3,0,8,0.00
2014-7-1,94,80,69,77,72,68,97,77,55,30.02,29.89,5,0,10,0.00
2014-7-2,94,80,70,75,72,69,95,77,49,30.00,29.92,7,1,13,0.02
2014-7-3,85,72,64,76,70,64,99,92,75,30.04,29.95,14,0,24,2.28
2014-7-4,82,70,61,64,58,52,98,67,38,30.27,30.02,6,1,13,0.00
2014-7-5,84,68,53,58,54,50,93,64,37,30.35,30.23,5,0,7,0.00
2014-7-6,88,71,54,68,59,52,95,70,39,30.23,30.02,7,0,12,0.00
2014-7-7,90,77,61,71,64,59,94,67,44,30.05,29.92,7,1,17,0.00
2014-7-8,92,80,69,71,66,62,84,64,41,30.00,29.86,10,2,20,0.00
2014-7-9,83,74,66,75,68,66,98,84,62,30.05,29.93,6,0,12,0.56
2014-7-10,88,73,66,73,68,65,100,88,54,30.16,30.03,3,0,4,0.03
2014-7-11,88,74,64,72,68,63,99,82,53,30.25,30.15,5,0,7,0.48
2014-7-12,91,76,64,74,69,63,99,81,54,30.26,30.15,5,0,9,0.00
2014-7-13,93,78,68,76,71,67,98,80,51,30.16,30.01,7,0,12,0.00
2014-7-14,91,79,70,77,71,67,94,78,60,30.02,29.90,8,1,14,0.09
2014-7-15,84,74,67,73,68,62,97,84,60,29.91,29.79,5,0,9,0.01
2014-7-16,82,70,60,63,56,52,89,64,38,30.01,29.86,7,1,12,0.00
2014-7-17,84,68,54,61,55,51,92,67,41,30.16,30.00,4,0,6,0.00
2014-7-18,78,67,58,68,62,55,96,83,67,30.26,30.16,4,0,6,0.02
2014-7-19,74,68,63,66,64,62,99,88,68,30.23,30.14,2,0,5,0.05
2014-7-20,81,70,65,70,66,63,96,87,66,30.16,30.09,4,0,6,0.02
2014-7-21,80,72,68,73,69,67,99,92,78,30.22,30.12,3,0,5,1.20
2014-7-22,90,77,70,74,71,69,99,84,57,30.22,30.11,5,0,6,0.00
2014-7-23,93,78,66,76,70,65,100,80,49,30.15,29.93,8,0,12,0.00
2014-7-24,88,74,68,75,69,66,97,87,63,30.02,29.87,6,0,12,0.11
2014-7-25,84,72,62,71,66,61,98,82,60,30.11,30.01,4,0,8,0.00
2014-7-26,92,78,66,71,67,60,98,72,39,30.06,29.94,5,1,9,0.00
2014-7-27,82,77,72,74,69,64,93,77,61,29.97,29.76,8,0,15,0.04
2014-7-28,78,74,66,69,62,57,77,66,53,29.94,29.74,11,2,18,0.00
2014-7-29,81,68,58,63,58,51,90,70,38,30.07,29.91,6,0,9,0.00
2014-7-30,82,67,55,63,57,52,92,72,47,30.13,30.06,5,0,8,0.00
2014-7-31,80,68,56,68,61,54,97,80,58,30.18,30.11,4,0,7,0.00
2014-8-1,71,66,63,67,64,62,98,94,83,30.22,30.16,1,0,4,0.60
2014-8-2,73,66,61,68,64,60,99,92,81,30.19,30.09,2,0,4,0.02
2014-8-3,85,70,59,67,62,58,100,78,48,30.16,30.07,6,1,8,0.00
2014-8-4,88,71,57,68,62,56,96,75,47,30.17,30.07,4,0,7,0.00
2014-8-5,89,73,61,71,66,61,99,79,52,30.13,30.00,4,0,7,0.00
2014-8-6,89,72,62,70,65,60,97,80,46,30.04,29.93,7,0,13,0.25
2014-8-7,85,72,63,71,67,63,99,84,56,30.09,29.99,4,0,7,0.00
2014-8-8,74,69,65,70,67,64,98,92,82,30.16,30.09,4,0,9,0.27
2014-8-9,66,64,63,65,64,62,100,98,96,30.17,30.10,2,0,5,2.56
2014-8-10,68,66,64,68,66,64,100,99,98,30.17,30.11,1,0,2,0.14
2014-8-11,69,67,66,68,67,66,100,99,97,30.14,30.01,1,0,4,0.93
2014-8-12,84,71,66,77,70,63,100,95,77,30.02,29.80,5,0,12,0.81
2014-8-13,77,70,60,64,60,57,90,73,59,30.03,29.86,7,1,12,0.00
2014-8-14,81,67,56,64,60,55,99,79,53,30.05,29.96,8,1,14,0.00
2014-8-15,85,71,61,66,62,56,99,75,46,30.07,29.97,7,1,10,0.00
2014-8-16,88,70,54,68,59,53,97,72,36,30.10,30.00,6,0,8,0.00
2014-8-17,85,72,63,72,65,59,94,80,58,30.05,29.99,4,0,7,0.01
2014-8-18,74,70,67,72,69,66,100,97,88,30.00,29.82,1,0,4,1.12
2014-8-19,79,72,67,74,71,66,100,95,80,29.96,29.84,5,0,8,0.03
2014-8-20,92,74,63,76,69,63,100,87,53,30.06,29.95,3,0,6,0.00
2014-8-21,90,75,67,74,69,65,99,82,53,30.13,30.03,7,0,10,0.56
2014-8-22,85,74,67,78,72,67,100,93,74,30.09,29.98,6,0,12,0.07
2014-8-23,90,75,70,78,72,70,99,91,66,30.06,29.95,4,0,6,1.21
2014-8-24,73,68,64,70,66,64,100,95,81,30.18,30.06,1,0,4,0.74
2014-8-25,81,68,58,66,62,58,100,84,54,30.20,30.14,2,0,4,0.00
2014-8-26,83,67,55,68,61,55,100,82,52,30.23,30.14,3,0,5,0.00
2014-8-27,90,70,54,71,62,53,100,81,44,30.16,30.01,4,0,6,0.00
2014-8-28,90,78,67,74,69,65,94,76,53,30.10,30.00,6,1,9,0.00
2014-8-29,84,73,64,70,64,57,94,75,57,30.23,30.10,3,0,7,0.00
2014-8-30,90,77,68,76,71,68,98,85,60,30.25,30.13,5,0,12,0.00
2014-8-31,92,78,69,78,72,68,98,84,57,30.18,30.07,5,0,8,0.00
2014-9-1,90,78,71,75,70,68,95,79,54,30.13,30.04,5,0,8,0.00
2014-9-2,93,80,67,75,70,66,97,75,49,30.09,29.95,8,1,14,0.68
2014-9-3,85,74,67,74,70,66,99,86,63,30.16,30.00,3,0,5,0.05
2014-9-4,82,74,68,75,70,67,98,90,74,30.21,30.13,3,0,6,0.00
2014-9-5,90,74,68,76,70,66,100,89,60,30.23,30.11,4,0,8,0.00
2014-9-6,88,73,66,77,70,66,100,91,58,30.13,29.97,5,0,13,1.03
2014-9-7,72,68,65,69,67,64,100,95,88,30.19,30.02,4,0,7,0.03
2014-9-8,71,66,61,64,62,57,97,87,78,30.22,30.15,2,0,4,0.01
2014-9-9,79,67,60,69,64,60,99,89,66,30.20,30.11,3,0,5,0.02
2014-9-10,76,69,64,70,67,63,99,92,78,30.17,30.04,3,0,6,0.01
2014-9-11,88,73,63,75,68,63,100,87,60,30.05,29.94,7,1,12,0.05
2014-9-12,73,68,64,70,68,64,99,97,90,30.16,30.03,2,0,5,0.11
2014-9-13,73,65,58,68,62,54,100,91,72,30.27,30.11,6,0,12,0.43
2014-9-14,70,61,58,60,56,53,95,84,64,30.34,30.22,4,0,7,0.00
2014-9-15,74,64,54,67,61,53,100,90,73,30.26,30.08,3,0,6,0.00